Time;durP1;ratioP1;P1;durP2;ratioP2;P2;SDS_P1;SDS_P2;PMS_P1;PMS_P2;Temp;Humidity;BMP_temperature;BMP_pressure;BME280_temperature;BME280_humidity;BME280_pressure;Samples;Min_cycle;Max_cycle;Signal;HPM_P1;HPM_P2
2022/09/19 00:01:24;;;;;;;1.45;0.30;;;;;;;11.15;65.59;99861.83;1758667;80;20883;-89
2022/09/19 00:03:58;;;;;;;0.17;0.10;;;;;;;11.12;65.63;99864.20;1758624;80;21192;-87
2022/09/19 00:06:26;;;;;;;1.30;0.10;;;;;;;11.12;65.72;99873.39;1764465;80;20990;-87
2022/09/19 00:08:53;;;;;;;0.10;0.10;;;;;;;11.11;65.83;99870.39;1803927;79;21364;-88
2022/09/19 00:11:21;;;;;;;0.15;0.15;;;;;;;11.10;65.87;99872.67;1803840;79;20867;-88
2022/09/19 00:13:50;;;;;;;0.75;0.20;;;;;;;11.08;65.90;99869.31;1820476;78;21331;-87
2022/09/19 00:16:21;;;;;;;0.45;0.15;;;;;;;11.08;66.00;99884.23;1820270;78;21220;-89
2022/09/19 00:18:51;;;;;;;0.23;0.23;;;;;;;11.05;66.12;99885.75;1820353;78;20936;-89
2022/09/19 00:21:32;;;;;;;0.20;0.10;;;;;;;11.04;66.29;99886.72;1820409;78;20858;-88
2022/09/19 00:26:45;;;;;;;0.78;0.30;;;;;;;11.02;66.45;99885.99;1820406;78;20913;-88
2022/09/19 00:29:14;;;;;;;1.75;0.20;;;;;;;10.99;66.54;99889.68;1820276;78;21846;-89
2022/09/19 00:31:43;;;;;;;1.55;0.20;;;;;;;10.94;66.75;99892.64;1820178;78;20909;-88
2022/09/19 00:34:11;;;;;;;0.20;0.20;;;;;;;10.91;66.88;99891.53;1820300;78;21015;-88
2022/09/19 00:36:38;;;;;;;0.75;0.15;;;;;;;10.89;67.02;99889.50;1820273;78;20944;-89
2022/09/19 00:39:07;;;;;;;0.30;0.30;;;;;;;10.87;67.05;99900.61;1820348;78;20889;-87
2022/09/19 00:41:36;;;;;;;0.17;0.17;;;;;;;10.85;67.29;99895.95;1820396;78;21070;-88
2022/09/19 00:44:26;;;;;;;0.53;0.15;;;;;;;10.82;67.46;99894.84;1820260;77;20860;-87
2022/09/19 00:47:07;;;;;;;0.15;0.15;;;;;;;10.81;67.60;99896.28;1821141;78;20891;-87
2022/09/19 00:49:37;;;;;;;1.50;0.20;;;;;;;10.78;67.73;99904.73;1773131;81;20915;-88
2022/09/19 00:52:13;;;;;;;3.77;0.40;;;;;;;10.77;67.80;99905.66;1822021;78;20925;-88
2022/09/19 00:54:43;;;;;;;0.35;0.30;;;;;;;10.76;67.96;99903.14;1820647;78;21081;-88
2022/09/19 00:57:13;;;;;;;0.80;0.60;;;;;;;10.75;68.07;99904.93;1820318;78;21572;-88
2022/09/19 00:59:41;;;;;;;2.20;0.53;;;;;;;10.72;68.27;99903.86;1820264;78;20881;-89
2022/09/19 01:02:08;;;;;;;0.10;0.10;;;;;;;10.71;68.42;99910.03;1793254;78;21499;-91
2022/09/19 01:04:36;;;;;;;0.20;0.10;;;;;;;10.69;68.52;99909.30;1820470;78;20889;-87
2022/09/19 01:07:32;;;;;;;0.88;0.20;;;;;;;10.69;68.67;99913.72;1819900;78;21363;-87
2022/09/19 01:10:18;;;;;;;0.60;0.57;;;;;;;10.67;68.74;99911.67;1819723;79;20947;-88
2022/09/19 01:13:09;;;;;;;0.42;0.40;;;;;;;10.65;68.75;99921.44;1819535;79;20919;-86
2022/09/19 01:16:07;;;;;;;0.25;0.25;;;;;;;10.63;68.83;99920.25;1812474;78;20895;-86
2022/09/19 01:18:48;;;;;;;0.95;0.30;;;;;;;10.62;68.93;99924.28;1819613;79;21480;-88
2022/09/19 01:21:38;;;;;;;0.30;0.30;;;;;;;10.58;69.00;99921.89;1819661;79;21211;-87
2022/09/19 01:24:48;;;;;;;1.52;0.28;;;;;;;10.57;69.14;99924.14;1790020;79;20974;-86
2022/09/19 01:27:55;;;;;;;0.47;0.30;;;;;;;10.56;69.25;99932.10;1820006;79;21409;-88
2022/09/19 01:30:23;;;;;;;1.15;0.30;;;;;;;10.54;69.34;99932.71;1819559;79;20852;-87
2022/09/19 01:32:57;;;;;;;0.50;0.23;;;;;;;10.51;69.46;99933.74;1819715;79;21424;-87
2022/09/19 01:35:28;;;;;;;;;;;;;;;10.48;69.59;99927.89;1822274;79;21111;-89
2022/09/19 01:38:08;;;;;;;1.25;0.30;;;;;;;10.45;69.80;99928.09;1819489;78;20081;-87
2022/09/19 01:40:36;;;;;;;0.42;0.20;;;;;;;10.41;69.90;99934.05;1819667;78;20943;-88
2022/09/19 01:43:12;;;;;;;0.28;0.28;;;;;;;10.39;70.08;99929.86;1790139;79;20987;-87
2022/09/19 01:45:39;;;;;;;1.85;0.40;;;;;;;10.36;70.23;99931.75;1819711;79;20887;-88
2022/09/19 01:48:55;;;;;;;0.60;0.37;;;;;;;10.34;70.37;99931.02;1819881;78;21954;-88
2022/09/19 01:51:34;;;;;;;0.20;0.20;;;;;;;10.31;70.55;99935.14;1819709;79;20919;-88
2022/09/19 01:54:27;;;;;;;1.82;0.33;;;;;;;10.31;70.70;99938.24;1819918;78;20932;-88
2022/09/19 01:57:07;;;;;;;0.40;0.37;;;;;;;10.28;70.76;99935.34;1819495;78;20931;-87
2022/09/19 01:59:47;;;;;;;1.10;0.70;;;;;;;10.28;70.99;99937.12;1819723;79;20959;-87
2022/09/19 02:02:43;;;;;;;0.70;0.70;;;;;;;10.25;71.18;99934.70;1819711;78;21134;-86
2022/09/19 02:05:14;;;;;;;1.32;0.60;;;;;;;10.22;71.27;99934.92;1817111;78;20868;-87
2022/09/19 02:07:49;;;;;;;1.32;0.40;;;;;;;10.21;71.40;99938.50;1819815;77;20935;-87
2022/09/19 02:10:21;;;;;;;3.20;1.55;;;;;;;10.20;71.49;99939.44;1821963;78;21510;-87
2022/09/19 02:12:52;;;;;;;6.70;2.77;;;;;;;10.18;71.70;99940.84;1822713;77;20943;-88
2022/09/19 02:15:28;;;;;;;0.70;0.60;;;;;;;10.15;71.87;99934.03;1819416;78;21193;-87
2022/09/19 02:18:04;;;;;;;2.30;0.60;;;;;;;10.14;72.05;99938.92;1820352;78;20920;-88
2022/09/19 02:20:33;;;;;;;0.57;0.57;;;;;;;10.14;72.20;99942.02;1820099;79;20884;-88
2022/09/19 02:23:11;;;;;;;0.80;0.50;;;;;;;10.12;72.36;99948.66;1819917;78;20884;-89
2022/09/19 02:25:38;;;;;;;2.65;0.60;;;;;;;10.12;72.57;99946.05;1819746;79;20950;-89
2022/09/19 02:28:12;;;;;;;4.28;1.15;;;;;;;10.10;72.73;99949.72;1820151;78;21114;-89
2022/09/19 02:30:39;;;;;;;1.20;0.60;;;;;;;10.09;72.94;99949.34;1820274;79;27170;-88
2022/09/19 02:33:07;;;;;;;1.60;0.80;;;;;;;10.07;73.07;99952.09;1820318;78;21448;-88
2022/09/19 02:35:58;;;;;;;1.60;0.90;;;;;;;10.07;73.26;99956.02;1820638;79;20884;-85
2022/09/19 02:38:34;;;;;;;0.85;0.68;;;;;;;10.06;73.40;99958.25;1822864;78;20998;-86
2022/09/19 02:41:21;;;;;;;1.00;0.75;;;;;;;10.05;73.48;99950.04;1819712;79;21076;-85
2022/09/19 02:44:19;;;;;;;2.42;0.85;;;;;;;10.06;73.59;99960.87;1819977;78;20963;-88
2022/09/19 02:47:04;;;;;;;2.08;0.70;;;;;;;10.06;73.73;99965.28;1819839;78;20982;-89
2022/09/19 02:49:49;;;;;;;1.60;0.80;;;;;;;10.04;73.88;99965.38;1819679;79;20876;-87
2022/09/19 02:52:24;;;;;;;1.40;0.97;;;;;;;10.03;74.03;99961.09;1820096;78;20916;-89
2022/09/19 02:54:54;;;;;;;1.55;1.10;;;;;;;10.02;74.12;99969.87;1820251;78;21205;-90
2022/09/19 02:57:22;;;;;;;1.12;1.00;;;;;;;10.01;74.26;99971.31;1820192;79;20868;-89
2022/09/19 02:59:49;;;;;;;4.72;1.70;;;;;;;9.99;74.33;99974.03;1820510;78;20972;-89
2022/09/19 03:02:31;;;;;;;1.10;1.00;;;;;;;9.99;74.47;99974.50;1819846;78;21424;-88
2022/09/19 03:05:05;;;;;;;1.98;1.10;;;;;;;9.98;74.55;99977.57;1819151;78;21038;-89
2022/09/19 03:07:39;;;;;;;4.37;1.40;;;;;;;9.97;74.62;99978.53;1819403;77;21833;-90
2022/09/19 03:10:15;;;;;;;1.30;0.98;;;;;;;9.98;74.69;99983.29;1817590;78;20948;-90
2022/09/19 03:13:05;;;;;;;3.75;1.10;;;;;;;9.95;74.74;99973.38;1698479;83;20867;-87
2022/09/19 03:15:38;;;;;;;1.45;1.35;;;;;;;9.96;74.84;99986.86;1698772;84;20922;-89
2022/09/19 03:18:10;;;;;;;1.53;1.17;;;;;;;9.94;74.94;99985.30;1698709;83;21444;-88
2022/09/19 03:20:38;;;;;;;3.42;1.72;;;;;;;9.93;74.98;99989.67;1675353;84;21138;-89
2022/09/19 03:23:07;;;;;;;1.70;1.40;;;;;;;9.93;75.02;99985.74;1698487;83;20975;-89
2022/09/19 03:25:36;;;;;;;1.27;1.17;;;;;;;9.92;75.06;100001.11;1675669;83;20930;-89
2022/09/19 03:28:04;;;;;;;1.30;1.20;;;;;;;9.92;75.22;100005.03;1698582;83;20990;-89
2022/09/19 03:30:31;;;;;;;1.47;1.37;;;;;;;9.92;75.28;100002.89;1698852;83;20868;-89
2022/09/19 03:33:01;;;;;;;1.60;1.50;;;;;;;9.91;75.36;100012.98;1701031;82;21225;-87
2022/09/19 03:35:30;;;;;;;1.05;1.05;;;;;;;9.91;75.46;100016.91;1700500;81;21412;-88
2022/09/19 03:37:57;;;;;;;1.82;1.57;;;;;;;9.88;75.73;100024.98;1699067;84;20995;-87
2022/09/19 03:40:25;;;;;;;2.12;1.40;;;;;;;9.85;75.89;100030.41;1698607;83;21036;-88
2022/09/19 03:42:53;;;;;;;1.27;1.05;;;;;;;9.82;76.02;100045.86;1698845;84;21411;-88
2022/09/19 03:45:21;;;;;;;1.72;1.62;;;;;;;9.81;76.19;100039.44;1817937;79;21215;-88
2022/09/19 03:47:47;;;;;;;1.67;1.57;;;;;;;9.79;76.31;100043.45;1818788;79;20960;-89
2022/09/19 03:50:14;;;;;;;1.50;1.40;;;;;;;9.78;76.39;100049.62;1818139;79;21335;-88
2022/09/19 03:52:58;;;;;;;3.67;1.60;;;;;;;9.78;76.60;100047.48;1724707;83;21463;-89
2022/09/19 03:55:27;;;;;;;2.70;1.07;;;;;;;9.77;76.55;100045.81;1725013;83;21030;-89
2022/09/19 03:57:54;;;;;;;1.50;1.40;;;;;;;9.77;76.69;100047.95;1724807;83;21166;-90
2022/09/19 04:00:22;;;;;;;4.42;3.17;;;;;;;9.78;76.70;100050.92;1724758;83;20899;-89
2022/09/19 04:02:49;;;;;;;1.70;1.60;;;;;;;9.79;76.76;100060.95;1725131;83;20943;-90
2022/09/19 04:05:16;;;;;;;2.80;1.77;;;;;;;9.80;76.89;100068.69;1725510;83;20999;-88
2022/09/19 04:07:43;;;;;;;2.22;1.55;;;;;;;9.82;76.89;100073.35;1727995;83;20938;-88
2022/09/19 04:10:10;;;;;;;1.60;1.30;;;;;;;9.84;76.89;100075.41;1745701;82;22084;-88
2022/09/19 04:12:40;;;;;;;4.85;3.00;;;;;;;9.86;76.91;100081.86;1746058;82;20937;-88
2022/09/19 04:15:08;;;;;;;1.45;1.35;;;;;;;9.88;76.94;100078.67;1746453;82;21216;-87
2022/09/19 04:17:35;;;;;;;1.85;1.20;;;;;;;9.90;76.97;100082.03;1745810;82;21091;-87
2022/09/19 04:20:04;;;;;;;4.05;2.25;;;;;;;9.91;76.92;100092.39;1744840;82;20901;-88
2022/09/19 04:22:37;;;;;;;2.35;2.10;;;;;;;9.96;76.91;100097.35;1744044;82;21145;-90
2022/09/19 04:25:22;;;;;;;2.35;1.47;;;;;;;9.98;76.83;100111.16;1743735;81;21516;-90
2022/09/19 04:28:03;;;;;;;2.85;1.45;;;;;;;10.02;76.85;100114.43;1779960;80;20845;-88
2022/09/19 04:30:34;;;;;;;2.65;1.60;;;;;;;10.04;76.81;100111.24;1784945;80;20932;-89
2022/09/19 04:33:03;;;;;;;2.33;2.08;;;;;;;10.08;76.76;100128.44;1774595;79;20865;-89
2022/09/19 04:35:36;;;;;;;3.15;1.45;;;;;;;10.11;76.77;100127.75;1801026;79;21102;-90
2022/09/19 04:38:11;;;;;;;2.33;1.60;;;;;;;10.15;76.71;100121.84;1801163;79;21005;-90
2022/09/19 04:40:40;;;;;;;1.77;1.50;;;;;;;10.20;76.60;100127.61;1800650;79;20985;-89
2022/09/19 04:43:09;;;;;;;3.87;1.70;;;;;;;10.25;76.46;100124.23;1801389;79;21035;-88
2022/09/19 04:45:44;;;;;;;1.55;1.42;;;;;;;10.33;76.35;100121.95;1801272;79;20902;-90
2022/09/19 04:48:19;;;;;;;2.27;1.67;;;;;;;10.44;76.14;100123.03;1775259;79;20962;-91
2022/09/19 04:50:50;;;;;;;3.52;1.40;;;;;;;10.77;76.18;100118.58;1802895;77;20981;-89
2022/09/19 04:53:23;;;;;;;1.40;1.30;;;;;;;11.44;75.36;100126.60;1801566;79;20911;-91
2022/09/19 04:55:53;;;;;;;1.62;1.52;;;;;;;12.30;72.98;100136.95;1801112;79;20915;-89
2022/09/19 04:58:23;;;;;;;3.00;1.42;;;;;;;13.20;70.20;100148.05;1801392;79;20875;-92
2022/09/19 05:00:54;;;;;;;4.80;1.17;;;;;;;14.01;66.91;100149.96;1800874;79;21883;-90
2022/09/19 05:03:27;;;;;;;3.62;0.82;;;;;;;14.76;63.55;100147.65;1801249;79;20839;-91
2022/09/19 05:05:55;;;;;;;4.10;1.35;;;;;;;15.46;61.15;100157.05;1800889;79;21045;-91
2022/09/19 05:08:26;;;;;;;2.17;1.98;;;;;;;16.03;58.62;100165.23;1801667;79;20895;-91
2022/09/19 05:10:56;;;;;;;3.77;2.92;;;;;;;16.51;57.12;100164.39;1774907;79;20993;-90
2022/09/19 05:13:27;;;;;;;7.25;6.33;;;;;;;16.95;55.17;100167.39;1804842;79;21128;-88
2022/09/19 05:15:55;;;;;;;7.85;6.95;;;;;;;17.06;53.92;100155.78;1775261;79;20966;-90
2022/09/19 05:18:22;;;;;;;6.12;2.55;;;;;;;16.75;53.45;100154.16;1803834;79;20855;-92
2022/09/19 05:20:54;;;;;;;2.90;1.65;;;;;;;16.48;53.88;100159.39;1820087;77;20852;-93
2022/09/19 05:23:24;;;;;;;1.98;1.40;;;;;;;16.26;54.75;100177.22;1819852;79;20836;-93
2022/09/19 05:25:53;;;;;;;3.00;1.70;;;;;;;16.18;54.82;100176.25;1820271;78;21752;-91
2022/09/19 05:28:26;;;;;;;1.52;1.00;;;;;;;16.41;54.56;100182.94;1820240;77;21345;-93
2022/09/19 05:30:54;;;;;;;3.00;1.40;;;;;;;16.78;53.67;100187.00;1820148;77;21337;-91
2022/09/19 05:33:26;;;;;;;2.98;2.70;;;;;;;17.22;52.48;100183.80;1820374;77;20884;-93
2022/09/19 05:35:48;;;;;;;4.12;3.15;;;;;;;17.65;51.38;100188.12;1819416;79;20939;-92
2022/09/19 05:38:36;;;;;;;9.93;8.95;;;;;;;18.22;50.27;100196.71;1819334;77;21435;-90
2022/09/19 05:41:04;;;;;;;6.47;4.80;;;;;;;18.87;48.52;100200.39;1810649;77;20903;-92
2022/09/19 05:43:42;;;;;;;5.22;1.72;;;;;;;19.44;47.29;100202.03;1819825;78;20867;-93
2022/09/19 05:46:09;;;;;;;2.60;1.22;;;;;;;19.96;45.63;100200.23;1820130;77;21427;-92
2022/09/19 05:48:39;;;;;;;6.12;1.47;;;;;;;20.38;44.73;100204.10;1820276;78;21029;-91
2022/09/19 05:51:06;;;;;;;2.20;1.05;;;;;;;20.76;43.98;100211.61;1820040;78;21377;-91
2022/09/19 05:56:19;;;;;;;2.62;1.00;;;;;;;21.47;41.95;100229.46;1812815;78;20876;-90
2022/09/19 05:58:48;;;;;;;1.42;0.82;;;;;;;21.87;41.52;100230.28;1820190;78;20966;-92
2022/09/19 06:01:14;;;;;;;1.98;1.22;;;;;;;22.37;40.66;100238.01;1820005;78;20896;-90
2022/09/19 06:03:44;;;;;;;4.92;1.20;;;;;;;22.79;39.45;100236.66;1820230;78;21309;-88
2022/09/19 06:06:18;;;;;;;1.10;0.75;;;;;;;23.06;38.55;100245.47;1822217;78;20887;-90
2022/09/19 06:08:43;;;;;;;1.30;0.80;;;;;;;23.24;38.21;100252.31;1822584;78;20867;-91
2022/09/19 06:11:12;;;;;;;5.53;1.20;;;;;;;23.51;37.71;100257.53;1820637;77;20891;-91
2022/09/19 06:16:25;;;;;;;13.78;10.88;;;;;;;23.96;36.81;100256.97;1821207;78;21129;-90
2022/09/19 06:18:54;;;;;;;2.37;1.40;;;;;;;24.26;36.41;100255.56;1816586;78;21363;-89
2022/09/19 06:21:20;;;;;;;4.08;2.75;;;;;;;24.57;35.76;100262.80;1820918;78;21345;-90
2022/09/19 06:23:47;;;;;;;3.10;1.47;;;;;;;24.93;35.11;100269.09;1821142;79;20883;-90
2022/09/19 06:26:17;;;;;;;1.65;1.10;;;;;;;25.19;34.50;100271.98;1821129;77;20979;-88
2022/09/19 06:28:46;;;;;;;1.17;0.98;;;;;;;25.42;33.81;100268.20;1821110;78;21101;-89
2022/09/19 06:31:12;;;;;;;3.33;1.00;;;;;;;25.66;33.46;100277.63;1822108;77;20836;-89
2022/09/19 06:33:56;;;;;;;6.17;1.20;;;;;;;25.78;33.10;100278.70;1820212;78;21372;-91
2022/09/19 06:36:24;;;;;;;2.08;0.90;;;;;;;25.93;32.74;100284.48;1819846;77;20891;-93
2022/09/19 06:38:51;;;;;;;1.85;1.00;;;;;;;26.07;32.75;100279.45;1820376;78;20868;-92
2022/09/19 06:41:31;;;;;;;1.65;0.90;;;;;;;26.16;32.39;100290.34;1818887;78;21219;-90
2022/09/19 06:44:16;;;;;;;1.55;1.00;;;;;;;26.25;32.24;100284.26;1818945;79;21013;-93
2022/09/19 06:46:48;;;;;;;3.70;1.15;;;;;;;26.37;31.92;100281.80;1812688;79;20962;-89
2022/09/19 06:49:19;;;;;;;2.80;1.12;;;;;;;26.45;31.59;100281.09;1812268;78;21415;-91
2022/09/19 06:51:58;;;;;;;0.72;0.40;;;;;;;26.64;31.29;100282.19;1818535;78;20919;-93
2022/09/19 06:54:25;;;;;;;2.05;0.80;;;;;;;26.93;31.03;100282.00;1820843;77;21287;-91
2022/09/19 06:56:53;;;;;;;2.40;0.90;;;;;;;27.02;30.21;100284.25;1820692;79;20875;-94
2022/09/19 06:59:21;;;;;;;1.65;0.95;;;;;;;26.84;30.61;100290.27;1820377;79;21381;-91
2022/09/19 07:01:47;;;;;;;1.95;0.78;;;;;;;26.79;30.49;100295.94;1820650;77;20868;-91
2022/09/19 07:04:15;;;;;;;3.37;0.80;;;;;;;26.78;30.68;100299.69;1821070;78;21044;-93
2022/09/19 07:06:44;;;;;;;1.15;0.40;;;;;;;26.98;30.43;100312.62;1811398;78;21248;-92
2022/09/19 07:09:13;;;;;;;3.83;0.95;;;;;;;27.20;29.92;100309.72;1820791;78;20974;-93
2022/09/19 07:11:43;;;;;;;1.02;0.60;;;;;;;27.50;29.51;100315.48;1797123;78;20864;-92
2022/09/19 07:14:11;;;;;;;1.22;0.53;;;;;;;27.80;29.18;100310.95;1821999;77;20876;-90
2022/09/19 07:16:39;;;;;;;2.52;0.60;;;;;;;28.05;28.63;100311.90;1821680;78;20943;-92
2022/09/19 07:19:06;;;;;;;2.70;0.60;;;;;;;28.08;28.47;100319.58;1821788;77;21122;-91
2022/09/19 07:21:53;;;;;;;0.50;0.47;;;;;;;28.06;28.30;100323.53;1818034;77;20993;-89
2022/09/19 07:24:22;;;;;;;2.30;0.90;;;;;;;28.01;28.09;100323.33;1819665;77;20852;-90
2022/09/19 07:26:50;;;;;;;1.52;0.50;;;;;;;28.04;28.22;100331.00;1820140;78;20918;-88
2022/09/19 07:29:20;;;;;;;2.60;0.50;;;;;;;28.24;28.11;100331.73;1823863;77;20843;-91
2022/09/19 07:31:47;;;;;;;1.55;0.30;;;;;;;28.46;27.78;100328.72;1822639;78;21202;-91
2022/09/19 07:34:14;;;;;;;3.05;0.57;;;;;;;28.51;27.60;100335.66;1821567;78;20899;-91
2022/09/19 07:36:53;;;;;;;0.85;0.50;;;;;;;28.50;27.52;100329.94;1821573;77;20939;-90
2022/09/19 07:39:20;;;;;;;0.65;0.25;;;;;;;28.68;27.25;100331.39;1796389;78;21384;-92
2022/09/19 07:41:52;;;;;;;0.90;0.30;;;;;;;28.88;27.04;100333.95;1818101;77;21468;-91
2022/09/19 07:44:23;;;;;;;0.20;0.20;;;;;;;29.00;26.04;100332.70;1811603;77;21238;-91
2022/09/19 07:47:56;;;;;;;4.95;0.40;;;;;;;28.85;25.74;100343.00;1819723;77;20990;-92
2022/09/19 07:49:47;;;;;;;5.30;4.80;;;;;;;28.16;26.07;100350.03;1816616;77;20919;-91
2022/09/19 07:52:16;;;;;;;5.03;4.62;;;;;;;27.29;26.85;100348.35;1819001;77;20927;-90
2022/09/19 07:54:42;;;;;;;3.65;3.27;;;;;;;27.04;27.63;100344.63;1821725;77;21374;-92
2022/09/19 07:57:10;;;;;;;5.53;5.05;;;;;;;27.22;27.69;100338.11;1822071;78;21290;-92
2022/09/19 07:59:37;;;;;;;2.75;0.90;;;;;;;27.51;27.71;100346.78;1821625;78;20912;-92
2022/09/19 08:02:07;;;;;;;1.27;0.60;;;;;;;27.86;27.08;100347.88;1821745;78;21538;-92
2022/09/19 08:04:39;;;;;;;0.80;0.30;;;;;;;28.27;26.68;100346.13;1822143;77;20900;-92
2022/09/19 08:07:06;;;;;;;0.45;0.33;;;;;;;28.62;26.54;100347.63;1822340;77;20998;-90
2022/09/19 08:09:34;;;;;;;2.37;0.60;;;;;;;28.69;25.40;100340.31;1822237;77;21218;-91
2022/09/19 08:12:04;;;;;;;4.85;0.42;;;;;;;28.58;25.67;100349.11;1821482;78;20844;-91
2022/09/19 08:14:33;;;;;;;0.62;0.15;;;;;;;28.46;25.50;100339.51;1821745;77;21365;-92
2022/09/19 08:17:01;;;;;;;0.82;0.23;;;;;;;28.29;25.41;100339.17;1821310;78;20884;-90
2022/09/19 08:19:30;;;;;;;2.00;0.10;;;;;;;28.02;25.52;100342.00;1821185;77;20879;-89
2022/09/19 08:21:58;;;;;;;3.15;0.40;;;;;;;27.65;25.70;100349.73;1821349;78;21013;-89
2022/09/19 08:24:24;;;;;;;0.95;0.30;;;;;;;27.61;26.10;100351.20;1820800;78;21341;-86
2022/09/19 08:26:53;;;;;;;0.20;0.20;;;;;;;27.78;26.17;100347.53;1821184;78;20880;-86
2022/09/19 08:29:20;;;;;;;0.60;0.20;;;;;;;28.04;26.14;100340.44;1795968;77;20926;-91
2022/09/19 08:31:51;;;;;;;7.03;0.90;;;;;;;28.36;26.12;100339.14;1820453;78;20951;-89
2022/09/19 08:34:19;;;;;;;0.95;0.30;;;;;;;28.76;25.82;100335.69;1821147;78;21239;-90
2022/09/19 08:36:50;;;;;;;4.00;0.53;;;;;;;29.07;25.71;100333.47;1821143;78;21408;-90
2022/09/19 08:39:17;;;;;;;1.10;0.15;;;;;;;29.39;24.92;100331.23;1821378;77;20927;-90
2022/09/19 08:42:13;;;;;;;1.75;0.20;;;;;;;29.69;24.75;100336.25;1821132;78;21369;-90
2022/09/19 08:44:52;;;;;;;0.20;0.10;;;;;;;29.92;24.26;100337.44;1821157;77;20879;-89
2022/09/19 08:47:21;;;;;;;1.42;0.10;;;;;;;30.17;23.85;100336.00;1821233;78;21219;-90
2022/09/19 08:50:17;;;;;;;0.72;0.10;;;;;;;30.15;23.64;100342.98;1821761;78;20883;-89
2022/09/19 08:52:49;;;;;;;0.47;0.25;;;;;;;30.25;23.43;100345.66;1823134;78;20888;-90
2022/09/19 08:55:23;;;;;;;1.65;0.20;;;;;;;30.43;23.03;100348.34;1821470;78;20966;-90
2022/09/19 08:57:59;;;;;;;10.32;8.90;;;;;;;30.42;22.76;100337.77;1821734;78;21396;-92
2022/09/19 09:00:39;;;;;;;2.42;1.72;;;;;;;30.13;22.18;100329.38;1821375;77;21365;-92
2022/09/19 09:03:09;;;;;;;3.58;3.35;;;;;;;29.59;22.61;100330.49;1820323;78;20935;-91
2022/09/19 09:05:52;;;;;;;3.17;1.25;;;;;;;29.42;23.03;100332.16;1821034;77;21445;-89
2022/09/19 09:08:35;;;;;;;0.70;0.40;;;;;;;29.41;23.29;100348.05;1820699;77;20879;-90
2022/09/19 09:11:58;;;;;;;1.35;0.45;;;;;;;29.41;22.84;100350.22;1820349;78;20899;-90
2022/09/19 09:14:48;;;;;;;4.60;0.50;;;;;;;29.28;22.52;100357.09;1808028;77;21589;-90
2022/09/19 09:17:57;;;;;;;0.13;0.10;;;;;;;29.00;23.18;100357.00;1820603;78;20998;-88
2022/09/19 09:22:27;;;;;;;1.60;0.13;;;;;;;28.03;24.52;100357.64;1854978;76;22657;-91
2022/09/19 09:25:14;;;;;;;0.40;0.15;;;;;;;27.76;25.33;100359.05;1816855;78;20910;-91
2022/09/19 09:28:04;;;;;;;1.17;0.28;;;;;;;27.98;25.35;100358.81;1821513;78;21423;-90
2022/09/19 09:30:39;;;;;;;14.33;0.55;;;;;;;27.87;24.87;100373.77;1819839;78;20930;-90
2022/09/19 09:33:31;;;;;;;0.53;0.10;;;;;;;27.56;25.23;100368.52;1822745;78;21006;-89
2022/09/19 09:36:06;;;;;;;33.50;30.15;;;;;;;27.27;25.67;100376.53;1819862;78;20922;-88
2022/09/19 09:38:48;;;;;;;7.67;6.67;;;;;;;27.24;26.16;100364.84;1822675;78;20911;-89
2022/09/19 09:41:45;;;;;;;3.87;1.85;;;;;;;27.41;25.81;100365.22;1823932;77;21236;-90
2022/09/19 09:44:23;;;;;;;;;;;;;;;27.45;26.23;100361.08;1827505;78;20914;-89
2022/09/19 09:46:59;;;;;;;0.60;0.55;;;;;;;27.82;26.13;100371.68;1824347;78;20101;-88
2022/09/19 09:49:30;;;;;;;0.40;0.40;;;;;;;28.24;25.85;100363.27;1823898;78;20876;-89
2022/09/19 09:52:33;;;;;;;3.00;2.80;;;;;;;28.77;25.13;100365.70;1824268;78;20986;-89
2022/09/19 09:58:34;;;;;;;3.83;2.33;;;;;;;29.18;23.27;100361.66;1823497;78;29094;-90
2022/09/19 10:04:28;;;;;;;2.25;1.00;;;;;;;29.34;24.27;100385.41;1824312;78;20883;-90
2022/09/19 10:07:24;;;;;;;0.42;0.13;;;;;;;29.68;24.36;100383.27;1822445;78;20974;-90
2022/09/19 10:10:00;;;;;;;0.93;0.40;;;;;;;30.04;24.08;100388.38;1824700;78;21105;-90
2022/09/19 10:12:35;;;;;;;1.22;0.40;;;;;;;30.46;23.69;100389.00;1792819;78;20919;-86
2022/09/19 10:15:12;;;;;;;0.35;0.20;;;;;;;30.77;23.04;100396.05;1764905;78;20911;-89
2022/09/19 10:17:46;;;;;;;2.05;0.28;;;;;;;30.95;22.60;100395.22;1795347;78;20939;-91
2022/09/19 10:20:38;;;;;;;2.00;0.30;;;;;;;30.63;22.73;100391.90;1824016;78;21072;-88
2022/09/19 10:23:19;;;;;;;1.95;0.30;;;;;;;30.51;22.87;100395.39;1826768;78;20947;-90
2022/09/19 10:25:50;;;;;;;1.45;0.10;;;;;;;30.34;23.01;100394.37;1827470;78;20934;-89
2022/09/19 10:28:29;;;;;;;1.87;0.10;;;;;;;29.97;23.01;100402.50;1827490;78;21447;-90
2022/09/19 10:31:05;;;;;;;3.27;0.30;;;;;;;29.77;23.32;100388.35;1821301;78;20879;-91
2022/09/19 10:33:44;;;;;;;7.05;0.45;;;;;;;29.74;23.30;100393.69;1826989;78;20951;-90
2022/09/19 10:36:25;;;;;;;0.37;0.10;;;;;;;29.52;23.16;100397.30;1826639;78;21349;-90
2022/09/19 10:38:58;;;;;;;0.90;0.15;;;;;;;29.22;23.44;100396.64;1827039;78;21382;-91
2022/09/19 10:41:27;;;;;;;0.20;0.10;;;;;;;29.08;23.83;100405.84;1826848;78;21321;-90
2022/09/19 10:43:59;;;;;;;1.45;0.30;;;;;;;29.08;23.93;100408.08;1826464;78;20871;-89
2022/09/19 10:46:35;;;;;;;0.20;0.10;;;;;;;29.16;23.58;100398.86;1826986;78;20978;-89
2022/09/19 10:49:08;;;;;;;0.50;0.10;;;;;;;29.30;23.30;100401.77;1823396;78;21273;-87
2022/09/19 10:51:39;;;;;;;3.22;2.83;;;;;;;29.45;23.65;100408.70;1823325;78;20887;-91
2022/09/19 10:54:11;;;;;;;4.85;4.42;;;;;;;29.45;23.33;100402.77;1826431;78;20990;-89
2022/09/19 10:56:41;;;;;;;4.03;3.47;;;;;;;29.38;23.00;100403.36;1826660;78;20966;-89
2022/09/19 10:59:18;;;;;;;8.88;8.18;;;;;;;29.38;23.33;100410.64;1826619;78;20926;-88
2022/09/19 11:02:24;;;;;;;8.53;4.42;;;;;;;29.47;23.42;100412.02;1823807;78;21277;-89
2022/09/19 11:05:09;;;;;;;5.37;0.35;;;;;;;29.44;22.73;100403.83;1826501;78;20883;-89
2022/09/19 11:07:50;;;;;;;3.47;0.35;;;;;;;29.14;23.02;100417.16;1826342;78;20863;-90
2022/09/19 11:10:38;;;;;;;0.40;0.10;;;;;;;29.03;23.14;100415.14;1825966;78;20934;-90
2022/09/19 11:13:22;;;;;;;0.50;0.23;;;;;;;28.98;23.62;100423.89;1825428;78;20927;-90
2022/09/19 11:16:05;;;;;;;2.15;0.13;;;;;;;28.88;23.72;100426.23;1826737;78;20911;-88
2022/09/19 11:18:47;;;;;;;1.10;0.20;;;;;;;28.72;23.94;100424.38;1826452;78;20907;-88
2022/09/19 11:21:30;;;;;;;0.95;0.10;;;;;;;28.37;23.95;100429.30;1823683;78;21479;-88
2022/09/19 11:24:21;;;;;;;0.78;0.10;;;;;;;27.90;24.43;100423.20;1822089;78;21359;-88
2022/09/19 11:27:09;;;;;;;2.85;2.30;;;;;;;27.39;24.56;100421.16;1821721;78;20963;-90
2022/09/19 11:29:51;;;;;;;6.70;5.08;;;;;;;26.68;25.32;100434.62;1823794;78;23362;-86
2022/09/19 11:32:56;;;;;;;1.57;1.02;;;;;;;26.22;26.50;100427.98;1823490;78;20919;-87
2022/09/19 11:35:28;;;;;;;0.62;0.57;;;;;;;26.12;26.61;100427.50;1813623;78;20915;-90
2022/09/19 11:38:07;;;;;;;1.45;1.07;;;;;;;26.02;26.74;100435.94;1824338;78;21002;-89
2022/09/19 11:41:06;;;;;;;5.42;0.78;;;;;;;25.89;26.90;100430.48;1752724;79;20805;-88
2022/09/19 11:44:23;;;;;;;1.57;0.30;;;;;;;25.82;27.01;100430.41;1824644;77;21353;-90
2022/09/19 11:47:07;;;;;;;0.93;0.40;;;;;;;25.80;27.48;100432.98;1792578;78;20887;-90
2022/09/19 11:50:04;;;;;;;2.50;0.20;;;;;;;25.60;27.53;100440.89;1749465;80;21049;-89
2022/09/19 11:53:01;;;;;;;1.85;0.10;;;;;;;25.39;27.85;100438.56;1822605;78;20911;-88
2022/09/19 11:55:37;;;;;;;0.35;0.20;;;;;;;25.21;28.27;100436.34;1791715;78;21041;-90
2022/09/19 11:58:23;;;;;;;0.75;0.75;;;;;;;25.04;28.42;100437.59;1823607;78;21224;-88
2022/09/19 12:01:05;;;;;;;5.60;4.28;;;;;;;24.97;29.04;100442.06;1823879;78;20880;-90
2022/09/19 12:04:06;;;;;;;7.78;6.67;;;;;;;24.95;29.21;100443.59;1818481;78;20896;-91
2022/09/19 12:07:06;;;;;;;3.98;2.40;;;;;;;24.87;29.48;100442.36;1823014;78;20938;-87
2022/09/19 12:09:45;;;;;;;1.82;1.72;;;;;;;24.75;29.44;100431.30;1823140;78;20888;-89
2022/09/19 12:12:18;;;;;;;1.57;0.75;;;;;;;24.54;29.74;100436.09;1822729;78;21223;-91
2022/09/19 12:14:55;;;;;;;1.02;0.37;;;;;;;24.40;29.40;100435.59;1796760;78;20955;-91
2022/09/19 12:17:39;;;;;;;1.00;0.20;;;;;;;24.13;29.83;100449.16;1822987;78;20852;-91
2022/09/19 12:20:37;;;;;;;1.72;0.72;;;;;;;23.80;30.08;100441.47;1822610;78;21057;-89
2022/09/19 12:26:21;;;;;;;1.98;0.57;;;;;;;23.37;31.30;100444.68;1778588;78;21294;-89
2022/09/19 12:29:20;;;;;;;0.98;0.20;;;;;;;23.20;31.78;100441.80;1823461;78;20962;-91